Time;durP1;ratioP1;P1;durP2;ratioP2;P2;SDS_P1;SDS_P2;PMS_P1;PMS_P2;Temp;Humidity;BMP_temperature;BMP_pressure;BME280_temperature;BME280_humidity;BME280_pressure;Samples;Min_cycle;Max_cycle;Signal;HPM_P1;HPM_P2
2024/01/25 00:02:05;;;;;;;24.55;6.18;;;8.10;99.90;;;;;;5082597;28;20424;-36
2024/01/25 00:04:31;;;;;;;23.50;5.50;;;8.10;99.90;;;;;;5081886;28;20463;-38
2024/01/25 00:06:57;;;;;;;30.70;6.10;;;8.10;99.90;;;;;;5051169;28;20044;-36
2024/01/25 00:09:23;;;;;;;34.15;6.35;;;8.00;99.90;;;;;;5080256;28;20032;-37
2024/01/25 00:11:48;;;;;;;23.00;5.53;;;8.00;99.90;;;;;;5081506;28;20043;-35
2024/01/25 00:14:14;;;;;;;23.27;5.47;;;8.00;99.90;;;;;;5085530;28;20043;-37
2024/01/25 00:16:43;;;;;;;26.67;5.38;;;8.00;99.90;;;;;;5068351;28;20059;-36
2024/01/25 00:19:09;;;;;;;24.90;5.57;;;7.90;99.90;;;;;;5077878;28;20040;-37
2024/01/25 00:21:34;;;;;;;28.75;5.88;;;7.90;99.90;;;;;;5095312;28;20052;-37
2024/01/25 00:24:00;;;;;;;26.60;5.78;;;7.80;99.90;;;;;;5093767;28;20402;-40
2024/01/25 00:26:26;;;;;;;21.75;5.13;;;7.80;99.90;;;;;;5071358;28;20054;-38
2024/01/25 00:28:52;;;;;;;21.73;5.30;;;7.70;99.90;;;;;;5094206;28;20119;-34
2024/01/25 00:31:17;;;;;;;26.63;6.25;;;7.70;99.90;;;;;;5097095;28;20548;-37
2024/01/25 00:33:43;;;;;;;25.83;6.43;;;7.70;99.90;;;;;;5086319;28;20112;-39
2024/01/25 00:36:10;;;;;;;23.30;5.95;;;7.60;99.90;;;;;;5094067;28;20472;-38
2024/01/25 00:38:36;;;;;;;23.20;5.47;;;7.60;99.90;;;;;;5095279;28;20391;-35
2024/01/25 00:41:01;;;;;;;22.90;4.95;;;7.50;99.90;;;;;;5097072;28;20044;-37
2024/01/25 00:43:28;;;;;;;19.98;5.60;;;7.50;99.90;;;;;;5091812;28;20089;-35
2024/01/25 00:45:54;;;;;;;26.98;5.28;;;7.50;99.90;;;;;;5084195;28;20067;-37
2024/01/25 00:48:20;;;;;;;29.17;5.55;;;7.50;99.90;;;;;;5101609;28;20082;-35
2024/01/25 00:50:46;;;;;;;28.17;5.97;;;7.50;99.90;;;;;;5060559;28;20043;-36
2024/01/25 00:53:12;;;;;;;32.78;5.90;;;7.50;99.90;;;;;;5093172;28;20040;-37
2024/01/25 00:55:37;;;;;;;24.50;5.18;;;7.50;99.90;;;;;;5096404;28;20537;-36
2024/01/25 00:58:04;;;;;;;27.05;5.13;;;7.50;99.90;;;;;;5097390;28;20504;-35
2024/01/25 01:00:30;;;;;;;29.27;5.43;;;7.40;99.90;;;;;;5087685;28;20562;-36
2024/01/25 01:02:58;;;;;;;27.38;6.22;;;7.40;99.90;;;;;;5093200;28;20071;-36
2024/01/25 01:05:25;;;;;;;28.25;5.88;;;7.40;99.90;;;;;;5095060;28;20036;-36
2024/01/25 01:07:51;;;;;;;22.35;5.60;;;7.30;99.90;;;;;;5087788;28;20039;-36
2024/01/25 01:10:16;;;;;;;30.73;5.78;;;7.30;99.90;;;;;;5101933;28;20067;-37
2024/01/25 01:12:42;;;;;;;29.33;5.88;;;7.20;99.90;;;;;;5097326;28;20079;-36
2024/01/25 01:15:08;;;;;;;27.33;6.35;;;7.10;99.90;;;;;;5092514;28;20128;-36
2024/01/25 01:17:34;;;;;;;27.70;6.95;;;7.10;99.90;;;;;;5092684;28;20548;-38
2024/01/25 01:20:00;;;;;;;26.05;6.35;;;7.00;99.90;;;;;;5100207;28;20039;-36
2024/01/25 01:22:25;;;;;;;28.13;5.88;;;7.00;99.90;;;;;;5069927;28;20096;-38
2024/01/25 01:24:51;;;;;;;30.30;6.22;;;6.90;99.90;;;;;;5073056;28;20079;-39
2024/01/25 01:27:17;;;;;;;31.55;7.13;;;7.00;99.90;;;;;;5070234;28;20032;-36
2024/01/25 01:29:43;;;;;;;32.70;5.85;;;7.00;99.90;;;;;;5072481;28;20041;-36
2024/01/25 01:32:08;;;;;;;23.10;5.50;;;6.90;99.90;;;;;;5049719;28;20087;-36
2024/01/25 01:34:34;;;;;;;25.15;5.32;;;6.80;99.90;;;;;;5072707;28;20097;-36
2024/01/25 01:37:00;;;;;;;28.15;6.50;;;6.90;99.90;;;;;;5047681;28;20044;-36
2024/01/25 01:39:26;;;;;;;28.05;6.07;;;6.80;99.90;;;;;;5065019;28;20453;-36
2024/01/25 01:41:51;;;;;;;24.70;5.55;;;6.80;99.90;;;;;;5070772;28;20036;-35
2024/01/25 01:44:17;;;;;;;27.48;6.13;;;6.80;99.90;;;;;;5068151;28;20558;-38
2024/01/25 01:46:43;;;;;;;24.33;5.32;;;6.80;99.90;;;;;;5049238;28;20116;-38
2024/01/25 01:49:13;;;;;;;32.13;6.03;;;6.70;99.90;;;;;;5066233;28;20037;-37
2024/01/25 01:51:44;;;;;;;23.02;5.75;;;6.70;99.90;;;;;;5071432;28;20070;-34
2024/01/25 01:54:10;;;;;;;28.08;5.45;;;6.70;99.90;;;;;;5078906;28;20052;-35
2024/01/25 01:56:36;;;;;;;19.42;5.93;;;6.60;99.90;;;;;;5077219;28;20478;-37
2024/01/25 01:59:05;;;;;;;25.13;5.47;;;6.50;99.90;;;;;;5071120;28;20039;-37
2024/01/25 02:01:31;;;;;;;26.40;6.43;;;6.50;99.90;;;;;;5093203;28;20040;-36
2024/01/25 02:03:57;;;;;;;26.63;5.10;;;6.50;99.90;;;;;;5093011;28;20092;-40
2024/01/25 02:06:24;;;;;;;26.45;5.55;;;6.40;99.90;;;;;;5093377;28;20040;-37
2024/01/25 02:08:58;;;;;;;28.92;5.60;;;6.40;99.90;;;;;;5093339;28;20063;-39
2024/01/25 02:11:28;;;;;;;27.70;6.15;;;6.40;99.90;;;;;;5087873;28;20059;-33
2024/01/25 02:13:56;;;;;;;29.27;6.53;;;6.40;99.90;;;;;;5071107;28;20040;-36
2024/01/25 02:16:21;;;;;;;31.95;6.45;;;6.40;99.90;;;;;;5066746;28;20079;-34
2024/01/25 02:18:47;;;;;;;23.17;6.07;;;6.30;99.90;;;;;;5070576;28;20072;-34
2024/01/25 02:21:13;;;;;;;28.73;5.93;;;6.30;99.90;;;;;;5080103;28;20522;-34
2024/01/25 02:23:39;;;;;;;31.70;5.95;;;6.30;99.90;;;;;;5084657;28;20067;-35
2024/01/25 02:26:05;;;;;;;27.00;5.93;;;6.20;99.90;;;;;;5086922;28;20028;-32
2024/01/25 02:28:31;;;;;;;28.05;5.97;;;6.20;99.90;;;;;;5088847;28;20418;-34
2024/01/25 02:30:57;;;;;;;27.58;6.22;;;6.20;99.90;;;;;;5079961;28;20040;-35
2024/01/25 02:33:22;;;;;;;32.25;5.53;;;6.20;99.90;;;;;;5087540;28;20050;-35
2024/01/25 02:35:48;;;;;;;26.00;6.63;;;6.20;99.90;;;;;;5082409;28;20450;-38
2024/01/25 02:38:14;;;;;;;27.20;6.43;;;6.10;99.90;;;;;;5070898;28;20036;-38
2024/01/25 02:40:40;;;;;;;32.42;6.85;;;6.10;99.90;;;;;;5088130;28;20117;-36
2024/01/25 02:43:05;;;;;;;35.05;6.63;;;6.10;99.90;;;;;;5072003;28;20044;-36
2024/01/25 02:45:31;;;;;;;33.35;7.13;;;6.00;99.90;;;;;;5085709;28;20451;-40
2024/01/25 02:47:57;;;;;;;32.33;6.95;;;6.00;99.90;;;;;;5080232;28;20036;-36
2024/01/25 02:50:23;;;;;;;29.75;5.55;;;6.00;99.90;;;;;;5052254;28;20511;-39
2024/01/25 02:52:48;;;;;;;32.78;6.38;;;6.00;99.90;;;;;;5052412;28;20053;-39
2024/01/25 02:55:18;;;;;;;27.02;6.97;;;5.90;99.90;;;;;;5058184;28;20079;-37
2024/01/25 02:57:43;;;;;;;24.77;5.45;;;5.90;99.90;;;;;;5086347;28;20044;-38
2024/01/25 03:00:10;;;;;;;32.90;6.40;;;5.80;99.90;;;;;;5090406;28;20506;-38
2024/01/25 03:02:35;;;;;;;26.83;6.07;;;5.80;99.90;;;;;;5081779;28;20530;-37
2024/01/25 03:05:01;;;;;;;31.75;6.18;;;5.80;99.90;;;;;;5088462;28;20044;-38
2024/01/25 03:07:27;;;;;;;28.85;7.32;;;5.70;99.90;;;;;;5085981;28;20071;-37
2024/01/25 03:09:53;;;;;;;29.30;6.30;;;5.80;99.90;;;;;;5072900;28;20062;-40
2024/01/25 03:12:19;;;;;;;22.40;5.85;;;5.80;99.90;;;;;;5077911;28;20032;-39
2024/01/25 03:14:45;;;;;;;30.25;6.97;;;5.70;99.90;;;;;;5097020;22;20035;-34
2024/01/25 03:17:12;;;;;;;27.45;6.25;;;5.70;99.90;;;;;;5115469;28;20044;-35
2024/01/25 03:19:38;;;;;;;26.92;6.32;;;5.70;99.90;;;;;;5115644;28;20035;-32
2024/01/25 03:22:04;;;;;;;32.38;7.18;;;5.70;99.90;;;;;;5118081;27;20435;-34
2024/01/25 03:24:29;;;;;;;21.70;5.45;;;5.60;99.90;;;;;;5097507;28;20084;-36
2024/01/25 03:26:55;;;;;;;32.58;6.03;;;5.60;99.90;;;;;;5101301;28;20043;-37
2024/01/25 03:29:21;;;;;;;22.67;5.88;;;5.60;99.90;;;;;;5096547;28;20082;-40
2024/01/25 03:31:47;;;;;;;34.50;6.93;;;5.60;99.90;;;;;;5096460;28;20028;-37
2024/01/25 03:34:13;;;;;;;30.48;6.60;;;5.60;99.90;;;;;;5096091;28;20040;-39
2024/01/25 03:36:39;;;;;;;37.53;7.43;;;5.60;99.90;;;;;;5096041;28;20039;-40
2024/01/25 03:39:05;;;;;;;39.95;7.72;;;5.60;99.90;;;;;;5096599;28;20040;-36
2024/01/25 03:41:31;;;;;;;27.23;5.65;;;5.60;99.90;;;;;;5096282;28;20066;-36
2024/01/25 03:43:57;;;;;;;39.22;7.15;;;5.50;99.90;;;;;;5096177;28;20044;-41
2024/01/25 03:46:22;;;;;;;27.33;6.93;;;5.50;99.90;;;;;;5096257;28;20068;-36
2024/01/25 03:48:48;;;;;;;35.00;6.38;;;5.50;99.90;;;;;;5095790;28;20066;-32
2024/01/25 03:51:14;;;;;;;34.00;7.95;;;5.50;99.90;;;;;;5095167;28;20040;-35
2024/01/25 03:53:42;;;;;;;31.30;7.25;;;5.50;99.90;;;;;;5091013;28;20040;-34
2024/01/25 03:56:17;;;;;;;35.90;6.20;;;5.50;99.90;;;;;;5095927;28;20048;-35
2024/01/25 03:58:43;;;;;;;30.00;6.55;;;5.50;99.90;;;;;;5070866;28;20463;-35
2024/01/25 04:01:09;;;;;;;31.98;6.88;;;5.40;99.90;;;;;;5095020;28;20441;-39
2024/01/25 04:03:35;;;;;;;35.20;6.88;;;5.40;99.90;;;;;;5088979;28;20040;-36
2024/01/25 04:06:01;;;;;;;35.13;7.65;;;5.40;99.90;;;;;;5091525;28;20036;-37
2024/01/25 04:08:27;;;;;;;30.77;7.45;;;5.40;99.90;;;;;;5093711;28;20048;-36
2024/01/25 04:10:52;;;;;;;31.38;5.82;;;5.40;99.90;;;;;;5086748;28;20483;-36
2024/01/25 04:13:18;;;;;;;30.80;6.72;;;5.40;99.90;;;;;;5092924;28;20040;-38
2024/01/25 04:15:44;;;;;;;27.70;5.50;;;5.30;99.90;;;;;;5072333;28;20068;-35
2024/01/25 04:18:10;;;;;;;33.38;6.20;;;5.30;99.90;;;;;;5083139;28;20115;-37
2024/01/25 04:20:36;;;;;;;35.05;6.63;;;5.30;99.90;;;;;;5074711;28;20480;-35
2024/01/25 04:23:02;;;;;;;27.08;6.43;;;5.20;99.90;;;;;;5074194;28;20048;-36
2024/01/25 04:25:27;;;;;;;27.65;6.00;;;5.20;99.90;;;;;;5070077;28;20041;-38
2024/01/25 04:27:53;;;;;;;33.38;6.38;;;5.20;99.90;;;;;;5068668;28;20108;-38
2024/01/25 04:30:19;;;;;;;40.45;7.60;;;5.20;99.90;;;;;;5071276;28;20041;-38
2024/01/25 04:32:45;;;;;;;29.02;6.57;;;5.20;99.90;;;;;;5073230;28;20044;-38
2024/01/25 04:35:10;;;;;;;24.10;6.30;;;5.20;99.90;;;;;;5065076;28;20055;-38
2024/01/25 04:37:36;;;;;;;35.30;6.32;;;5.20;99.90;;;;;;5067437;28;20037;-37
2024/01/25 04:40:03;;;;;;;31.50;6.40;;;5.10;99.90;;;;;;5074234;28;20511;-35
2024/01/25 04:42:28;;;;;;;30.33;6.85;;;5.10;99.90;;;;;;5072145;28;20083;-38
2024/01/25 04:44:54;;;;;;;33.58;6.60;;;5.00;99.90;;;;;;5053182;28;20080;-36
2024/01/25 04:47:20;;;;;;;28.70;6.70;;;5.00;99.90;;;;;;5068095;28;20465;-35
2024/01/25 04:49:45;;;;;;;25.77;6.55;;;5.00;99.90;;;;;;5073720;28;20036;-38
2024/01/25 04:52:11;;;;;;;36.28;7.07;;;4.90;99.90;;;;;;5071436;28;20075;-35
2024/01/25 04:54:37;;;;;;;28.02;7.10;;;4.90;99.90;;;;;;5069519;28;20052;-37
2024/01/25 04:57:06;;;;;;;30.20;6.13;;;4.90;99.90;;;;;;5074397;28;20048;-35
2024/01/25 04:59:35;;;;;;;31.40;7.32;;;4.80;99.90;;;;;;5066421;28;20037;-38
2024/01/25 05:02:01;;;;;;;30.63;6.25;;;4.70;99.90;;;;;;5072676;28;20438;-35
2024/01/25 05:04:31;;;;;;;28.23;6.60;;;4.70;99.90;;;;;;5083085;28;20052;-36
2024/01/25 05:06:57;;;;;;;34.58;7.18;;;4.70;99.90;;;;;;5073763;28;20127;-36
2024/01/25 05:09:23;;;;;;;28.73;6.50;;;4.60;99.90;;;;;;5070523;28;20469;-36
2024/01/25 05:11:49;;;;;;;27.77;6.78;;;4.60;99.90;;;;;;5078291;28;20085;-35
2024/01/25 05:14:15;;;;;;;30.40;7.30;;;4.60;99.90;;;;;;5073893;28;20052;-37
2024/01/25 05:16:40;;;;;;;38.70;7.40;;;4.60;99.90;;;;;;5108629;28;20050;-36
2024/01/25 05:19:06;;;;;;;30.23;6.93;;;4.50;99.90;;;;;;5094677;28;20067;-36
2024/01/25 05:21:32;;;;;;;31.75;6.78;;;4.50;99.90;;;;;;5093771;28;20039;-39
2024/01/25 05:23:57;;;;;;;34.42;7.07;;;4.40;99.90;;;;;;5083215;28;20071;-36
2024/01/25 05:26:23;;;;;;;31.52;7.70;;;4.50;99.90;;;;;;5089155;28;20036;-36
2024/01/25 05:28:49;;;;;;;30.80;6.85;;;4.40;99.90;;;;;;5075437;28;20066;-38
2024/01/25 05:31:16;;;;;;;30.27;7.32;;;4.40;99.90;;;;;;5093532;28;20036;-36
2024/01/25 05:33:42;;;;;;;29.65;7.28;;;4.30;99.90;;;;;;5086762;28;20040;-38
2024/01/25 05:36:09;;;;;;;25.02;6.35;;;4.30;99.90;;;;;;5076084;28;20040;-36
2024/01/25 05:38:35;;;;;;;34.10;6.55;;;4.20;99.90;;;;;;5101645;28;20416;-36
2024/01/25 05:41:01;;;;;;;26.75;6.45;;;4.20;99.90;;;;;;5093321;28;20043;-37
2024/01/25 05:43:27;;;;;;;30.75;6.93;;;4.10;99.90;;;;;;5088042;28;20398;-35
2024/01/25 05:45:52;;;;;;;27.25;6.20;;;4.10;99.90;;;;;;5099238;28;20094;-36
2024/01/25 05:48:18;;;;;;;30.25;6.63;;;4.10;99.90;;;;;;5095564;28;20125;-37
2024/01/25 05:50:44;;;;;;;35.92;7.07;;;4.10;99.90;;;;;;5093503;28;20055;-36
2024/01/25 05:53:09;;;;;;;43.97;8.32;;;4.10;99.90;;;;;;5068042;28;20043;-36
2024/01/25 05:55:35;;;;;;;37.45;7.45;;;4.10;99.90;;;;;;5093015;28;20043;-35
2024/01/25 05:58:01;;;;;;;26.88;7.18;;;4.10;99.90;;;;;;5095091;28;20502;-35
2024/01/25 06:00:28;;;;;;;30.13;8.40;;;4.00;99.90;;;;;;5075250;28;20105;-37
2024/01/25 06:02:54;;;;;;;38.78;8.13;;;4.00;99.90;;;;;;5088214;28;20044;-37
2024/01/25 06:05:20;;;;;;;30.15;8.10;;;4.00;99.90;;;;;;5052098;28;20375;-38
2024/01/25 06:07:46;;;;;;;39.15;7.22;;;4.00;99.90;;;;;;5090381;28;20164;-36
2024/01/25 06:10:11;;;;;;;24.90;7.13;;;3.90;99.90;;;;;;5074905;28;20106;-35
2024/01/25 06:12:37;;;;;;;26.92;7.18;;;4.00;99.90;;;;;;5090523;28;20054;-35
2024/01/25 06:15:03;;;;;;;32.20;8.60;;;3.90;99.90;;;;;;5080215;28;20044;-35
2024/01/25 06:17:30;;;;;;;34.47;8.90;;;3.90;99.90;;;;;;5084959;28;20036;-35
2024/01/25 06:19:56;;;;;;;38.30;10.40;;;3.90;99.90;;;;;;5074760;28;20128;-36
2024/01/25 06:22:22;;;;;;;62.47;20.92;;;3.80;99.90;;;;;;5086014;28;20119;-35
2024/01/25 06:24:47;;;;;;;48.05;14.27;;;3.80;99.90;;;;;;5092362;28;20042;-36
2024/01/25 06:27:13;;;;;;;34.70;10.70;;;3.80;99.90;;;;;;5104576;28;20033;-35
2024/01/25 06:29:39;;;;;;;29.45;7.10;;;3.80;99.90;;;;;;5089970;28;20060;-35
2024/01/25 06:32:06;;;;;;;34.55;8.93;;;3.80;99.90;;;;;;5079807;28;20044;-37
2024/01/25 06:34:32;;;;;;;44.35;14.02;;;3.80;99.90;;;;;;5086815;28;20453;-34
2024/01/25 06:36:58;;;;;;;40.95;11.05;;;3.80;99.90;;;;;;5092505;28;20040;-35
2024/01/25 06:39:23;;;;;;;33.72;10.90;;;3.80;99.90;;;;;;5079255;28;20047;-35
2024/01/25 06:41:49;;;;;;;36.67;13.50;;;3.80;99.90;;;;;;5102288;28;20502;-39
2024/01/25 06:44:16;;;;;;;40.72;8.85;;;3.80;99.90;;;;;;5091878;28;20482;-38
2024/01/25 06:46:42;;;;;;;34.65;10.95;;;3.80;99.90;;;;;;5090277;28;20093;-35
2024/01/25 06:49:08;;;;;;;33.90;9.18;;;3.90;99.90;;;;;;5086073;28;20044;-36
2024/01/25 06:51:34;;;;;;;30.63;8.95;;;3.80;99.90;;;;;;5088974;28;20033;-37
2024/01/25 06:54:00;;;;;;;29.65;7.65;;;3.80;99.90;;;;;;5085267;28;20360;-34
2024/01/25 06:56:26;;;;;;;39.83;8.02;;;3.80;99.90;;;;;;5073465;28;20128;-34
2024/01/25 06:58:51;;;;;;;31.08;7.30;;;3.80;99.90;;;;;;5091560;28;20047;-33
2024/01/25 07:01:22;;;;;;;30.85;8.13;;;3.80;99.90;;;;;;5093179;28;20044;-35
2024/01/25 07:03:50;;;;;;;34.78;9.70;;;3.80;99.90;;;;;;5092013;28;20055;-35
2024/01/25 07:06:17;;;;;;;46.38;13.73;;;3.80;99.90;;;;;;5103370;28;20036;-38
2024/01/25 07:08:42;;;;;;;35.80;11.70;;;3.80;99.90;;;;;;5090648;28;20398;-34
2024/01/25 07:11:08;;;;;;;39.08;12.60;;;3.80;99.90;;;;;;5086214;28;20119;-34
2024/01/25 07:13:34;;;;;;;37.30;10.85;;;3.80;99.90;;;;;;5089699;28;20039;-33
2024/01/25 07:16:00;;;;;;;43.22;13.32;;;3.80;99.90;;;;;;5085289;28;20049;-32
2024/01/25 07:18:25;;;;;;;41.85;10.70;;;3.80;99.90;;;;;;5090361;28;20048;-32
2024/01/25 07:20:51;;;;;;;39.72;10.20;;;3.80;99.90;;;;;;5095041;28;20456;-34
2024/01/25 07:23:18;;;;;;;40.95;9.00;;;3.80;99.90;;;;;;5090149;28;20118;-31
2024/01/25 07:25:43;;;;;;;37.22;8.68;;;3.80;99.90;;;;;;5096064;28;20048;-34
2024/01/25 07:28:09;;;;;;;32.60;7.75;;;3.80;99.90;;;;;;5093320;28;20513;-33
2024/01/25 07:30:35;;;;;;;31.08;7.72;;;3.80;99.90;;;;;;5081517;28;20452;-32
2024/01/25 07:33:01;;;;;;;39.67;8.45;;;3.80;99.90;;;;;;5092502;28;20040;-32
2024/01/25 07:35:27;;;;;;;25.98;7.72;;;3.80;99.90;;;;;;5091020;28;20101;-32
2024/01/25 07:37:52;;;;;;;41.95;9.10;;;3.80;99.90;;;;;;5103787;28;20035;-33
2024/01/25 07:40:18;;;;;;;36.90;10.60;;;3.80;99.90;;;;;;5073047;28;20048;-34
2024/01/25 07:42:46;;;;;;;37.08;12.52;;;3.80;99.90;;;;;;5091259;28;20115;-33
2024/01/25 07:45:13;;;;;;;40.42;9.15;;;3.80;99.90;;;;;;5102093;28;20028;-34
2024/01/25 07:47:41;;;;;;;34.97;8.77;;;3.80;99.90;;;;;;5067895;28;20040;-34
2024/01/25 07:50:08;;;;;;;42.38;12.55;;;3.80;99.90;;;;;;5093121;28;20563;-32
2024/01/25 07:52:34;;;;;;;30.77;10.90;;;3.90;99.90;;;;;;5096802;28;20058;-33
2024/01/25 07:54:59;;;;;;;34.97;9.75;;;3.90;99.90;;;;;;5077349;28;20044;-31
2024/01/25 07:57:25;;;;;;;39.80;8.98;;;3.90;99.90;;;;;;5104456;28;20047;-33
2024/01/25 07:59:51;;;;;;;35.17;8.00;;;3.90;99.90;;;;;;5094865;28;20117;-33
2024/01/25 08:02:17;;;;;;;32.00;8.93;;;4.00;99.90;;;;;;5075960;28;20166;-32
2024/01/25 08:04:43;;;;;;;29.80;9.35;;;3.90;99.90;;;;;;5094502;28;20036;-34
2024/01/25 08:07:08;;;;;;;35.50;9.35;;;4.00;99.90;;;;;;5092134;28;20101;-34
2024/01/25 08:09:34;;;;;;;39.53;10.43;;;4.00;99.90;;;;;;5091777;28;20111;-32
2024/01/25 08:12:00;;;;;;;34.38;8.73;;;4.10;99.90;;;;;;5077238;28;20504;-32
2024/01/25 08:14:26;;;;;;;36.47;8.43;;;4.10;99.90;;;;;;5090239;28;20569;-32
2024/01/25 08:16:52;;;;;;;41.20;7.95;;;4.10;99.90;;;;;;5092816;28;20088;-31
2024/01/25 08:19:17;;;;;;;36.20;8.10;;;4.20;99.90;;;;;;5088087;28;20058;-33
2024/01/25 08:21:43;;;;;;;31.30;8.40;;;4.20;99.90;;;;;;5091665;28;20477;-32
2024/01/25 08:24:09;;;;;;;31.60;8.02;;;4.30;99.90;;;;;;5091573;28;20451;-32
2024/01/25 08:26:35;;;;;;;28.90;7.97;;;4.30;99.90;;;;;;5091805;28;20072;-33
2024/01/25 08:29:01;;;;;;;29.35;8.55;;;4.30;99.90;;;;;;5100306;28;20047;-33
2024/01/25 08:31:27;;;;;;;26.48;7.78;;;4.40;99.90;;;;;;5091905;28;20432;-34
2024/01/25 08:33:52;;;;;;;31.88;7.43;;;4.40;99.90;;;;;;5089729;28;20131;-33
2024/01/25 08:36:19;;;;;;;35.50;9.35;;;4.50;99.90;;;;;;5090137;28;20418;-33
2024/01/25 08:38:45;;;;;;;36.47;9.13;;;4.50;99.90;;;;;;5097667;28;20469;-32
2024/01/25 08:41:11;;;;;;;26.73;7.45;;;4.50;99.90;;;;;;5086749;28;20071;-34
2024/01/25 08:43:37;;;;;;;27.60;7.93;;;4.60;99.90;;;;;;5092969;28;20035;-32
2024/01/25 08:46:03;;;;;;;29.63;7.53;;;4.60;99.90;;;;;;5093792;28;20515;-32
2024/01/25 08:48:29;;;;;;;35.85;11.68;;;4.70;99.90;;;;;;5088688;28;20107;-34
2024/01/25 08:50:54;;;;;;;37.22;10.75;;;4.70;99.90;;;;;;5089992;28;20043;-33
2024/01/25 08:53:27;;;;;;;34.35;10.40;;;4.70;99.90;;;;;;5077405;28;20044;-32
2024/01/25 08:55:53;;;;;;;41.47;12.13;;;4.80;99.90;;;;;;5090696;28;20044;-33
2024/01/25 08:58:19;;;;;;;55.55;17.77;;;4.90;99.90;;;;;;5101246;28;20043;-33
2024/01/25 09:00:45;;;;;;;48.65;21.40;;;4.90;99.90;;;;;;5091608;28;20032;-32
2024/01/25 09:03:11;;;;;;;42.25;12.50;;;5.00;99.90;;;;;;5091361;28;20047;-34
2024/01/25 09:05:40;;;;;;;57.28;19.60;;;5.00;99.90;;;;;;5092526;28;20036;-33
2024/01/25 09:08:07;;;;;;;49.20;14.63;;;5.10;99.90;;;;;;5087903;28;20040;-34
2024/01/25 09:10:32;;;;;;;46.30;13.82;;;5.10;99.90;;;;;;5093276;28;20043;-34
2024/01/25 09:12:58;;;;;;;31.95;9.05;;;5.20;99.90;;;;;;5089875;28;20032;-34
2024/01/25 09:15:24;;;;;;;40.38;12.15;;;5.30;99.90;;;;;;5081901;28;20083;-33
2024/01/25 09:17:50;;;;;;;38.50;12.95;;;5.30;99.90;;;;;;5087971;28;20048;-33
2024/01/25 09:20:15;;;;;;;36.03;12.43;;;5.40;99.90;;;;;;5086591;28;20101;-32
2024/01/25 09:22:41;;;;;;;35.85;10.85;;;5.50;99.90;;;;;;5093314;28;20036;-37
2024/01/25 09:25:07;;;;;;;39.33;11.20;;;5.60;99.90;;;;;;5094394;28;20511;-40
2024/01/25 09:27:33;;;;;;;38.88;9.15;;;5.70;99.90;;;;;;5075856;28;20032;-38
2024/01/25 09:29:59;;;;;;;38.38;11.20;;;5.80;99.90;;;;;;5094223;28;20023;-36
2024/01/25 09:32:25;;;;;;;31.73;10.48;;;6.00;99.90;;;;;;5094119;28;20078;-41
2024/01/25 09:34:50;;;;;;;35.17;8.70;;;6.20;99.90;;;;;;5093817;28;20403;-36
2024/01/25 09:37:17;;;;;;;34.80;8.68;;;6.50;99.90;;;;;;5094129;28;20036;-40
2024/01/25 09:39:43;;;;;;;37.58;10.27;;;6.70;99.90;;;;;;5093720;28;20039;-36
2024/01/25 09:42:10;;;;;;;33.15;8.05;;;6.70;99.90;;;;;;5093780;28;20119;-39
2024/01/25 09:44:38;;;;;;;33.78;15.10;;;6.80;99.90;;;;;;5093723;28;20043;-39
2024/01/25 09:47:05;;;;;;;31.35;10.15;;;6.70;99.90;;;;;;5075615;28;20057;-40
2024/01/25 09:49:32;;;;;;;30.17;8.68;;;6.80;99.90;;;;;;5093612;28;20123;-37
2024/01/25 09:52:03;;;;;;;32.65;9.07;;;6.70;99.90;;;;;;5093786;28;20036;-40
2024/01/25 09:54:33;;;;;;;41.00;16.38;;;6.70;99.90;;;;;;5093343;28;20109;-38
2024/01/25 09:57:00;;;;;;;32.88;9.48;;;6.70;99.90;;;;;;5093498;28;20046;-38
2024/01/25 09:59:27;;;;;;;43.35;14.20;;;6.60;99.90;;;;;;5093624;28;20043;-40
2024/01/25 10:01:53;;;;;;;42.80;12.88;;;6.60;99.90;;;;;;5093619;28;20140;-38
2024/01/25 10:04:21;;;;;;;35.17;14.38;;;6.60;99.90;;;;;;5074912;28;20071;-37
2024/01/25 10:06:47;;;;;;;29.77;9.55;;;6.60;99.90;;;;;;5093272;28;20123;-38
2024/01/25 10:09:14;;;;;;;29.17;8.55;;;6.60;99.90;;;;;;5075406;28;20114;-39
2024/01/25 10:11:40;;;;;;;27.90;7.47;;;6.70;99.90;;;;;;5093015;28;20093;-38
2024/01/25 10:14:08;;;;;;;26.25;8.52;;;6.80;99.90;;;;;;5092527;28;20533;-36
2024/01/25 10:16:34;;;;;;;27.90;7.78;;;6.90;99.90;;;;;;5092877;28;20499;-37
2024/01/25 10:19:02;;;;;;;32.67;9.00;;;7.10;99.90;;;;;;5093068;28;20071;-40
2024/01/25 10:21:29;;;;;;;27.27;8.10;;;7.20;99.90;;;;;;5093356;28;20123;-41
2024/01/25 10:23:57;;;;;;;30.73;8.65;;;7.30;99.90;;;;;;5092798;28;20043;-38
2024/01/25 10:26:27;;;;;;;26.27;7.68;;;7.40;99.90;;;;;;5074879;28;20119;-37
2024/01/25 10:28:53;;;;;;;28.90;7.45;;;7.50;99.90;;;;;;5093219;28;20124;-38
2024/01/25 10:31:19;;;;;;;26.88;8.00;;;7.60;99.90;;;;;;5093156;28;20047;-38
2024/01/25 10:33:46;;;;;;;27.60;7.72;;;7.70;99.90;;;;;;5093004;28;20036;-41
2024/01/25 10:36:13;;;;;;;27.90;8.10;;;7.80;99.90;;;;;;5093126;28;20052;-38
2024/01/25 10:38:42;;;;;;;31.33;8.48;;;8.30;99.90;;;;;;5074899;28;20356;-36
2024/01/25 10:41:07;;;;;;;56.90;24.25;;;8.70;99.90;;;;;;5092853;28;20542;-39
2024/01/25 10:43:34;;;;;;;28.60;8.32;;;8.80;99.90;;;;;;5092857;28;20040;-41
2024/01/25 10:46:00;;;;;;;31.73;9.50;;;8.80;99.90;;;;;;5092807;28;20040;-38
2024/01/25 10:48:26;;;;;;;30.45;9.40;;;8.70;99.90;;;;;;5092914;28;20036;-37
2024/01/25 10:50:54;;;;;;;30.65;10.65;;;8.40;99.90;;;;;;5092941;28;20036;-38
2024/01/25 10:53:21;;;;;;;29.27;8.45;;;8.40;99.90;;;;;;5092516;28;20040;-39
2024/01/25 10:55:47;;;;;;;29.35;8.27;;;8.40;99.90;;;;;;5092526;28;20123;-37
2024/01/25 10:58:14;;;;;;;32.15;7.95;;;8.60;99.90;;;;;;5092943;28;20123;-38
2024/01/25 11:00:39;;;;;;;26.25;8.43;;;8.80;99.90;;;;;;5092377;28;20097;-41
2024/01/25 11:03:06;;;;;;;27.15;7.60;;;9.20;99.90;;;;;;5092630;28;20040;-38
2024/01/25 11:05:32;;;;;;;26.15;7.20;;;9.80;99.90;;;;;;5092810;28;20075;-38
2024/01/25 11:07:58;;;;;;;33.72;7.78;;;10.40;99.90;;;;;;5092774;28;20041;-39
2024/01/25 11:10:25;;;;;;;24.27;8.70;;;10.80;99.90;;;;;;5092507;28;20394;-41
2024/01/25 11:12:59;;;;;;;29.25;8.15;;;11.00;99.90;;;;;;5074576;28;20612;-37
2024/01/25 11:15:35;;;;;;;23.70;8.23;;;10.70;99.90;;;;;;5091915;28;20060;-41
2024/01/25 11:18:03;;;;;;;27.20;7.60;;;10.60;99.90;;;;;;5092753;28;20467;-41
2024/01/25 11:20:30;;;;;;;27.17;8.35;;;10.80;99.90;;;;;;5074092;28;20082;-39
2024/01/25 11:23:02;;;;;;;26.10;7.45;;;11.20;99.90;;;;;;5092512;28;20047;-39
2024/01/25 11:25:32;;;;;;;29.05;8.43;;;11.40;99.90;;;;;;5096051;28;20399;-39
2024/01/25 11:28:02;;;;;;;23.70;8.07;;;11.50;99.90;;;;;;5096777;28;20487;-40
2024/01/25 11:30:30;;;;;;;23.55;7.97;;;11.60;99.90;;;;;;5096631;28;20156;-37
2024/01/25 11:32:56;;;;;;;25.40;7.38;;;12.10;99.90;;;;;;5094890;28;20048;-37
2024/01/25 11:35:22;;;;;;;29.98;7.78;;;12.40;99.90;;;;;;5094988;28;20052;-37
2024/01/25 11:37:49;;;;;;;24.05;7.78;;;12.10;99.90;;;;;;5094923;28;20075;-38
2024/01/25 11:40:16;;;;;;;30.92;9.35;;;11.90;99.90;;;;;;5096132;28;20044;-39
2024/01/25 11:42:43;;;;;;;24.92;8.80;;;11.60;99.90;;;;;;5096219;28;20051;-38
2024/01/25 11:45:12;;;;;;;27.35;8.05;;;11.40;99.90;;;;;;5096289;28;20032;-38
2024/01/25 11:47:39;;;;;;;33.22;10.85;;;11.10;99.90;;;;;;5096116;28;20032;-41
2024/01/25 11:50:09;;;;;;;28.00;10.13;;;10.90;99.90;;;;;;5096166;28;20379;-37
2024/01/25 11:52:36;;;;;;;24.73;9.13;;;10.80;99.90;;;;;;5096069;28;20040;-41
2024/01/25 11:55:03;;;;;;;26.73;8.18;;;10.70;99.90;;;;;;5077707;28;20048;-40
2024/01/25 11:57:42;;;;;;;28.17;10.90;;;10.70;99.90;;;;;;5093066;28;20041;-37
2024/01/25 12:00:15;;;;;;;32.60;11.63;;;10.80;99.90;;;;;;5075723;28;20376;-40
2024/01/25 12:02:42;;;;;;;47.45;24.80;;;10.70;99.90;;;;;;5075602;28;20483;-39
2024/01/25 12:05:10;;;;;;;28.50;8.48;;;10.40;99.90;;;;;;5057675;28;20560;-37
2024/01/25 12:07:36;;;;;;;32.13;8.57;;;10.20;99.90;;;;;;5075596;28;20472;-38
2024/01/25 12:10:14;;;;;;;33.33;9.60;;;10.00;99.90;;;;;;5075504;28;20607;-38
2024/01/25 12:12:40;;;;;;;30.33;9.35;;;9.70;99.90;;;;;;5075393;28;20085;-39
2024/01/25 12:15:07;;;;;;;55.05;25.65;;;9.70;99.90;;;;;;5075120;28;20119;-41
2024/01/25 12:17:36;;;;;;;24.52;7.78;;;9.60;99.90;;;;;;5075470;28;20040;-37
2024/01/25 12:20:03;;;;;;;33.50;11.38;;;9.60;99.90;;;;;;5075126;28;20053;-42
2024/01/25 12:22:29;;;;;;;37.65;10.65;;;9.50;99.90;;;;;;5066179;28;20081;-34
2024/01/25 12:24:58;;;;;;;26.00;9.30;;;9.40;99.90;;;;;;5087336;28;20037;-35
2024/01/25 12:27:26;;;;;;;26.52;8.63;;;9.60;99.90;;;;;;5097710;28;20067;-35
2024/01/25 12:29:55;;;;;;;31.45;8.98;;;9.60;99.90;;;;;;5094060;28;20059;-34
2024/01/25 12:32:21;;;;;;;34.33;9.98;;;9.60;99.90;;;;;;5100183;28;20039;-34
2024/01/25 12:34:58;;;;;;;29.45;8.20;;;9.50;99.90;;;;;;5093724;28;20036;-34
2024/01/25 12:37:24;;;;;;;28.25;8.45;;;9.70;99.90;;;;;;5093262;28;20040;-34
2024/01/25 12:39:53;;;;;;;31.30;7.78;;;9.90;99.90;;;;;;5096031;28;20036;-34